Time;durP1;ratioP1;P1;durP2;ratioP2;P2;SDS_P1;SDS_P2;PMS_P1;PMS_P2;Temp;Humidity;BMP_temperature;BMP_pressure;BME280_temperature;BME280_humidity;BME280_pressure;Samples;Min_cycle;Max_cycle;Signal;HPM_P1;HPM_P2
2021/12/19 00:02:22;;;;;;;15.63;7.65;;;7.50;99.90;;;;;;4991412;28;20042;-50
2021/12/19 00:10:17;;;;;;;12.40;6.82;;;7.40;99.90;;;;;;4987909;28;20109;-57
2021/12/19 00:12:42;;;;;;;12.95;6.30;;;7.50;99.90;;;;;;4989188;28;20430;-50
2021/12/19 00:15:08;;;;;;;12.65;6.57;;;7.50;99.90;;;;;;4989359;28;20038;-51
2021/12/19 00:17:34;;;;;;;13.23;6.43;;;7.50;99.90;;;;;;4991131;28;20038;-52
2021/12/19 00:19:59;;;;;;;11.93;6.30;;;7.50;99.90;;;;;;4989973;28;20030;-53
2021/12/19 00:22:25;;;;;;;10.15;6.15;;;7.50;99.90;;;;;;4988950;28;20054;-50
2021/12/19 00:24:50;;;;;;;11.23;5.95;;;7.50;99.90;;;;;;4989719;28;20065;-50
2021/12/19 00:27:16;;;;;;;12.23;5.43;;;7.50;99.90;;;;;;4987804;28;20050;-52
2021/12/19 00:29:41;;;;;;;10.02;5.35;;;7.50;99.90;;;;;;4989633;28;20038;-50
2021/12/19 00:32:07;;;;;;;8.90;5.20;;;7.50;99.90;;;;;;4990362;28;20066;-50
2021/12/19 00:34:33;;;;;;;8.15;4.70;;;7.50;99.90;;;;;;4990833;28;20049;-50
2021/12/19 00:36:58;;;;;;;9.15;5.18;;;7.50;99.90;;;;;;4990764;28;20030;-51
2021/12/19 00:39:24;;;;;;;9.48;5.00;;;7.50;99.90;;;;;;4990813;28;20042;-50
2021/12/19 00:41:52;;;;;;;10.35;5.03;;;7.50;99.90;;;;;;4991016;28;20042;-50
2021/12/19 00:44:25;;;;;;;8.98;4.70;;;7.50;99.90;;;;;;4990892;28;20042;-50
2021/12/19 00:47:03;;;;;;;8.57;5.05;;;7.50;99.90;;;;;;4990278;28;20049;-51
2021/12/19 00:49:30;;;;;;;9.63;5.10;;;7.50;99.90;;;;;;4990009;28;20081;-50
2021/12/19 00:51:55;;;;;;;10.45;5.43;;;7.50;99.90;;;;;;4986689;28;20042;-53
2021/12/19 00:54:21;;;;;;;12.07;5.72;;;7.50;99.90;;;;;;4988385;28;20038;-50
2021/12/19 00:56:48;;;;;;;9.73;5.05;;;7.50;99.90;;;;;;4989667;28;20113;-55
2021/12/19 00:59:15;;;;;;;10.63;5.95;;;7.50;99.90;;;;;;4990525;28;20421;-50
2021/12/19 01:01:41;;;;;;;12.55;5.95;;;7.50;99.90;;;;;;4990026;28;20446;-54
2021/12/19 01:04:12;;;;;;;11.82;5.97;;;7.60;99.90;;;;;;4986347;28;20035;-51
2021/12/19 01:06:39;;;;;;;10.90;6.27;;;7.60;99.90;;;;;;4987896;28;20101;-50
2021/12/19 01:09:06;;;;;;;12.52;6.07;;;7.60;99.90;;;;;;4989488;28;20189;-50
2021/12/19 01:11:33;;;;;;;13.73;6.60;;;7.60;99.90;;;;;;4988082;28;20138;-53
2021/12/19 01:13:59;;;;;;;12.02;6.07;;;7.60;99.90;;;;;;4989332;28;20112;-52
2021/12/19 01:16:25;;;;;;;12.18;5.75;;;7.60;99.90;;;;;;4990070;28;20483;-50
2021/12/19 01:18:50;;;;;;;10.68;5.78;;;7.60;99.90;;;;;;4989597;28;20128;-50
2021/12/19 01:21:17;;;;;;;10.25;5.72;;;7.60;99.90;;;;;;4989372;28;20422;-50
2021/12/19 01:23:42;;;;;;;10.30;5.47;;;7.60;99.90;;;;;;4988951;28;20236;-52
2021/12/19 01:26:10;;;;;;;12.23;5.38;;;7.60;99.90;;;;;;4986175;28;20538;-50
2021/12/19 01:28:37;;;;;;;10.13;5.15;;;7.60;99.90;;;;;;4985297;28;20046;-51
2021/12/19 01:31:03;;;;;;;12.45;5.78;;;7.60;99.90;;;;;;4989085;28;20049;-50
2021/12/19 01:33:29;;;;;;;10.65;5.18;;;7.60;99.90;;;;;;4986945;28;20704;-51
2021/12/19 01:35:54;;;;;;;11.85;5.82;;;7.60;99.90;;;;;;4986614;28;20034;-50
2021/12/19 01:38:20;;;;;;;10.52;4.47;;;7.60;99.90;;;;;;4988296;28;20046;-50
2021/12/19 01:40:46;;;;;;;9.18;4.75;;;7.60;99.90;;;;;;4990120;28;20038;-53
2021/12/19 01:43:12;;;;;;;11.93;5.45;;;7.60;99.90;;;;;;4986572;28;20093;-50
2021/12/19 01:45:40;;;;;;;10.88;5.22;;;7.60;99.90;;;;;;4989738;28;20054;-50
2021/12/19 01:48:10;;;;;;;10.63;5.28;;;7.60;99.90;;;;;;4987902;28;20099;-50
2021/12/19 01:50:36;;;;;;;11.35;4.95;;;7.60;99.90;;;;;;4988196;28;20087;-50
2021/12/19 01:53:05;;;;;;;9.77;5.03;;;7.60;99.90;;;;;;4987248;28;20042;-50
2021/12/19 01:55:31;;;;;;;9.35;4.78;;;7.60;99.90;;;;;;4988638;28;20096;-55
2021/12/19 01:57:56;;;;;;;9.32;5.00;;;7.60;99.90;;;;;;4988743;28;20446;-53
2021/12/19 02:00:26;;;;;;;10.82;5.20;;;7.60;99.90;;;;;;4987301;28;20038;-53
2021/12/19 02:02:53;;;;;;;9.35;4.78;;;7.60;99.90;;;;;;4989792;28;20042;-50
2021/12/19 02:05:19;;;;;;;10.85;4.07;;;7.60;99.90;;;;;;4988179;28;20053;-50
2021/12/19 02:07:47;;;;;;;6.30;3.22;;;7.60;99.90;;;;;;4988324;28;20038;-53
2021/12/19 02:10:16;;;;;;;6.85;3.55;;;7.60;99.90;;;;;;4989257;28;20470;-51
2021/12/19 02:12:43;;;;;;;9.15;3.28;;;7.60;99.90;;;;;;4969010;28;20115;-50
2021/12/19 02:15:10;;;;;;;7.60;3.70;;;7.60;99.90;;;;;;4986190;28;20043;-50
2021/12/19 02:17:35;;;;;;;6.90;3.15;;;7.60;99.90;;;;;;4987179;28;20038;-51
2021/12/19 02:20:02;;;;;;;6.20;2.85;;;7.60;99.90;;;;;;4987845;28;20038;-51
2021/12/19 02:22:27;;;;;;;5.35;2.53;;;7.60;99.90;;;;;;4987145;28;20093;-50
2021/12/19 02:24:54;;;;;;;5.07;2.58;;;7.60;99.90;;;;;;4988758;28;20499;-52
2021/12/19 02:27:26;;;;;;;5.10;2.63;;;7.60;99.90;;;;;;4987494;28;20038;-50
2021/12/19 02:29:51;;;;;;;6.05;2.50;;;7.50;99.90;;;;;;4989216;28;20121;-54
2021/12/19 02:32:17;;;;;;;6.25;2.28;;;7.50;99.90;;;;;;4988864;28;20125;-50
2021/12/19 02:34:44;;;;;;;2.63;1.80;;;7.50;99.90;;;;;;4988492;28;20680;-51
2021/12/19 02:37:32;;;;;;;3.05;1.70;;;7.50;99.90;;;;;;4988552;28;20031;-50
2021/12/19 02:48:10;;;;;;;3.15;1.80;;;7.50;99.90;;;;;;4988181;28;20120;-52
2021/12/19 02:50:38;;;;;;;4.95;1.70;;;7.40;99.90;;;;;;4988550;28;20054;-50
2021/12/19 02:53:03;;;;;;;5.22;2.05;;;7.40;99.90;;;;;;4989056;28;20030;-50
2021/12/19 02:55:29;;;;;;;2.97;1.70;;;7.40;99.90;;;;;;4988741;28;20035;-52
2021/12/19 02:57:54;;;;;;;3.83;1.75;;;7.40;99.90;;;;;;4988761;28;20485;-50
2021/12/19 03:00:24;;;;;;;4.40;1.70;;;7.40;99.90;;;;;;4988943;28;20565;-51
2021/12/19 03:02:50;;;;;;;3.03;1.42;;;7.40;99.90;;;;;;4988642;28;20498;-50
2021/12/19 03:05:16;;;;;;;3.53;1.77;;;7.40;99.90;;;;;;4988684;28;20042;-50
2021/12/19 03:07:43;;;;;;;4.13;1.80;;;7.40;99.90;;;;;;4987836;28;20402;-50
2021/12/19 03:13:16;;;;;;;4.63;1.60;;;7.30;99.90;;;;;;4991029;28;20120;-52
2021/12/19 03:18:26;;;;;;;3.20;1.75;;;7.40;99.90;;;;;;4992418;28;20097;-53
2021/12/19 03:20:52;;;;;;;3.88;1.80;;;7.40;99.90;;;;;;4992976;28;20038;-50
2021/12/19 03:23:17;;;;;;;3.35;1.90;;;7.40;99.90;;;;;;4992411;28;20085;-53
2021/12/19 03:25:43;;;;;;;3.40;1.60;;;7.40;99.90;;;;;;4992595;28;20100;-50
2021/12/19 03:28:10;;;;;;;4.03;1.90;;;7.40;99.90;;;;;;4992376;28;20050;-51
2021/12/19 03:30:38;;;;;;;4.75;1.90;;;7.40;99.90;;;;;;4991977;28;20405;-50
2021/12/19 03:33:04;;;;;;;4.60;1.90;;;7.40;99.90;;;;;;4991669;28;20046;-50
2021/12/19 03:35:30;;;;;;;3.55;1.60;;;7.40;99.90;;;;;;4991830;28;20044;-50
2021/12/19 03:37:58;;;;;;;2.67;1.65;;;7.40;99.90;;;;;;4991945;28;20026;-49
2021/12/19 03:40:35;;;;;;;2.92;1.60;;;7.40;99.90;;;;;;4992261;28;20077;-52
2021/12/19 03:43:05;;;;;;;3.50;1.48;;;7.40;99.90;;;;;;4992445;28;20161;-50
2021/12/19 03:45:31;;;;;;;3.80;1.83;;;7.40;99.90;;;;;;4992178;28;20125;-55
2021/12/19 03:47:57;;;;;;;3.78;1.60;;;7.40;99.90;;;;;;4991602;28;20617;-50
2021/12/19 03:50:23;;;;;;;3.60;1.90;;;7.40;99.90;;;;;;4992323;28;20125;-50
2021/12/19 03:52:51;;;;;;;3.25;1.90;;;7.40;99.90;;;;;;4991830;28;20129;-53
2021/12/19 03:55:18;;;;;;;5.43;2.40;;;7.40;99.90;;;;;;4991884;28;20042;-52
2021/12/19 03:57:44;;;;;;;5.18;2.30;;;7.40;99.90;;;;;;4991840;28;20058;-53
2021/12/19 04:00:13;;;;;;;5.72;2.40;;;7.40;99.90;;;;;;4991796;28;20046;-51
2021/12/19 04:02:39;;;;;;;5.95;2.08;;;7.40;99.90;;;;;;4991058;28;20689;-51
2021/12/19 04:05:05;;;;;;;5.07;2.08;;;7.40;99.90;;;;;;4991972;28;20129;-50
2021/12/19 04:07:31;;;;;;;4.85;1.77;;;7.40;99.90;;;;;;4991134;28;20046;-50
2021/12/19 04:09:56;;;;;;;4.45;1.90;;;7.30;99.90;;;;;;4991650;28;20383;-50
2021/12/19 04:12:25;;;;;;;4.10;1.85;;;7.30;99.90;;;;;;4991563;28;20465;-52
2021/12/19 04:14:51;;;;;;;2.90;1.60;;;7.20;99.90;;;;;;4991670;28;20050;-52
2021/12/19 04:17:16;;;;;;;4.22;1.90;;;7.20;99.90;;;;;;4991643;28;20042;-53
2021/12/19 04:19:43;;;;;;;4.45;1.80;;;7.20;99.90;;;;;;4991624;28;20042;-52
2021/12/19 04:22:08;;;;;;;8.30;2.40;;;7.10;99.90;;;;;;4991267;28;20475;-51
2021/12/19 04:24:34;;;;;;;5.57;2.00;;;7.10;99.90;;;;;;4990359;28;20030;-50
2021/12/19 04:26:59;;;;;;;5.63;1.58;;;7.10;99.90;;;;;;4991789;28;20101;-50
2021/12/19 04:29:26;;;;;;;6.22;2.08;;;7.10;99.90;;;;;;4991317;28;20046;-50
2021/12/19 04:31:53;;;;;;;3.40;1.58;;;7.00;99.90;;;;;;4991394;28;20053;-52
2021/12/19 04:34:19;;;;;;;6.00;1.90;;;7.00;99.90;;;;;;4991370;28;20054;-53
2021/12/19 04:36:50;;;;;;;3.60;1.80;;;7.00;99.90;;;;;;4991239;28;20078;-50
2021/12/19 04:41:53;;;;;;;3.28;1.50;;;7.00;99.90;;;;;;4990951;28;20042;-51
2021/12/19 04:52:53;;;;;;;3.33;1.60;;;7.10;99.90;;;;;;4990697;28;20119;-50
2021/12/19 04:55:44;;;;;;;3.47;1.35;;;7.10;99.90;;;;;;4990690;28;20046;-50
2021/12/19 05:00:55;;;;;;;2.35;1.30;;;7.10;99.90;;;;;;4991042;28;20034;-50
2021/12/19 05:03:44;;;;;;;3.47;1.58;;;7.10;99.90;;;;;;4990601;28;20048;-50
2021/12/19 05:14:31;;;;;;;1.42;0.88;;;7.00;99.90;;;;;;4990458;28;20050;-50
2021/12/19 05:17:04;;;;;;;1.60;0.98;;;7.00;99.90;;;;;;4989977;28;20141;-50
2021/12/19 05:19:43;;;;;;;1.48;0.90;;;7.00;99.90;;;;;;4990067;28;20042;-53
2021/12/19 05:22:08;;;;;;;0.85;0.77;;;7.00;99.90;;;;;;4972693;28;20100;-52
2021/12/19 05:26:59;;;;;;;0.77;0.75;;;6.90;99.90;;;;;;4990631;28;20054;-50
2021/12/19 05:29:25;;;;;;;0.60;0.55;;;7.00;99.90;;;;;;4990522;28;20038;-50
2021/12/19 05:31:50;;;;;;;1.73;0.70;;;6.90;99.90;;;;;;4989870;28;20041;-50
2021/12/19 05:34:16;;;;;;;1.35;0.88;;;6.90;99.90;;;;;;4989122;28;20064;-52
2021/12/19 05:47:37;;;;;;;1.80;1.00;;;7.00;99.90;;;;;;4989767;28;20046;-53
2021/12/19 05:50:04;;;;;;;2.45;1.10;;;7.00;99.90;;;;;;4989926;28;20050;-54
2021/12/19 05:52:30;;;;;;;5.15;1.10;;;7.00;99.90;;;;;;4989630;28;20054;-50
2021/12/19 05:54:56;;;;;;;2.33;1.00;;;7.00;99.90;;;;;;4989534;28;20057;-50
2021/12/19 05:57:22;;;;;;;1.40;0.95;;;7.00;99.90;;;;;;4989938;28;20041;-49
2021/12/19 05:59:48;;;;;;;1.90;0.88;;;7.00;99.90;;;;;;4989979;28;20042;-50
2021/12/19 06:02:13;;;;;;;1.92;0.88;;;7.00;99.90;;;;;;4988529;28;21067;-50
2021/12/19 06:04:39;;;;;;;3.72;1.35;;;7.00;99.90;;;;;;4989704;28;20418;-52
2021/12/19 06:07:04;;;;;;;3.90;1.10;;;7.00;99.90;;;;;;4989957;28;20044;-53
2021/12/19 06:09:30;;;;;;;3.45;1.40;;;7.00;99.90;;;;;;4989771;28;20038;-50
2021/12/19 06:11:56;;;;;;;2.15;1.13;;;7.00;99.90;;;;;;4971532;28;20118;-50
2021/12/19 06:14:22;;;;;;;2.47;1.20;;;7.00;99.90;;;;;;4988749;28;20054;-52
2021/12/19 06:16:48;;;;;;;4.13;1.48;;;7.00;99.90;;;;;;4970966;28;20081;-50
2021/12/19 06:19:13;;;;;;;2.13;1.40;;;7.00;99.90;;;;;;4989463;28;20045;-52
2021/12/19 06:21:39;;;;;;;3.60;1.58;;;7.00;99.90;;;;;;4989610;28;20066;-50
2021/12/19 06:24:05;;;;;;;4.70;1.63;;;7.00;99.90;;;;;;4989646;28;20638;-55
2021/12/19 06:26:33;;;;;;;2.90;1.70;;;7.00;99.90;;;;;;4989358;28;20069;-53
2021/12/19 06:28:59;;;;;;;4.85;1.83;;;7.10;99.90;;;;;;4989170;28;20046;-55
2021/12/19 06:31:24;;;;;;;5.70;2.00;;;7.10;99.90;;;;;;4989305;28;20096;-55
2021/12/19 06:33:50;;;;;;;4.47;2.25;;;7.10;99.90;;;;;;4988915;28;20041;-55
2021/12/19 06:36:15;;;;;;;6.80;2.70;;;7.00;99.90;;;;;;4989415;28;20034;-55
2021/12/19 06:38:42;;;;;;;6.90;2.70;;;7.10;99.90;;;;;;4989147;28;20121;-53
2021/12/19 06:41:08;;;;;;;7.00;2.70;;;7.10;99.90;;;;;;4971855;28;20054;-52
2021/12/19 06:43:34;;;;;;;12.10;2.97;;;7.10;99.90;;;;;;4989211;28;20499;-53
2021/12/19 06:45:59;;;;;;;10.00;3.53;;;7.10;99.90;;;;;;4989427;28;20045;-53
2021/12/19 06:48:25;;;;;;;12.05;4.38;;;7.10;99.90;;;;;;4993522;28;20069;-52
2021/12/19 06:50:51;;;;;;;17.98;4.68;;;7.10;99.90;;;;;;4993129;28;20034;-52
2021/12/19 06:53:17;;;;;;;13.38;4.28;;;7.10;99.90;;;;;;4992961;28;20035;-55
2021/12/19 06:55:43;;;;;;;14.85;4.90;;;7.10;99.90;;;;;;4993247;28;20097;-55
2021/12/19 06:58:09;;;;;;;17.20;5.40;;;7.10;99.90;;;;;;4992687;28;20081;-55
2021/12/19 07:00:35;;;;;;;11.27;5.90;;;7.10;99.90;;;;;;4992288;28;20065;-55
2021/12/19 07:03:00;;;;;;;17.02;5.97;;;7.10;99.90;;;;;;4991309;28;20118;-54
2021/12/19 07:05:26;;;;;;;18.00;6.75;;;7.10;99.90;;;;;;4992693;28;20034;-55
2021/12/19 07:07:51;;;;;;;21.35;7.20;;;7.10;99.90;;;;;;4992999;28;20054;-53
2021/12/19 07:10:17;;;;;;;18.63;7.03;;;7.10;99.90;;;;;;4992890;28;20048;-53
2021/12/19 07:12:43;;;;;;;17.73;6.75;;;7.20;99.90;;;;;;4992721;28;20387;-55
2021/12/19 07:15:09;;;;;;;19.42;7.25;;;7.10;99.90;;;;;;4992677;28;20049;-53
2021/12/19 07:17:35;;;;;;;22.65;7.70;;;7.20;99.90;;;;;;4990343;28;20100;-55
2021/12/19 07:20:00;;;;;;;19.50;7.45;;;7.20;99.90;;;;;;4987913;28;20043;-53
2021/12/19 07:22:26;;;;;;;26.27;8.20;;;7.20;99.90;;;;;;4989580;28;20118;-53
2021/12/19 07:24:51;;;;;;;21.02;7.68;;;7.20;99.90;;;;;;5006248;22;20037;-48
2021/12/19 07:27:17;;;;;;;22.75;7.72;;;7.20;99.90;;;;;;5047648;28;20124;-52
2021/12/19 07:29:43;;;;;;;26.02;7.88;;;7.20;99.90;;;;;;5051707;28;20068;-51
2021/12/19 07:32:10;;;;;;;18.33;7.20;;;7.20;99.90;;;;;;5044474;28;20103;-50
2021/12/19 07:34:37;;;;;;;27.40;8.50;;;7.20;99.90;;;;;;5044435;28;20046;-53
2021/12/19 07:37:03;;;;;;;20.65;7.28;;;7.30;99.90;;;;;;5051000;28;20033;-52
2021/12/19 07:42:02;;;;;;;16.15;7.47;;;7.30;99.90;;;;;;5039328;28;20120;-51
2021/12/19 07:44:28;;;;;;;18.23;7.47;;;7.30;99.90;;;;;;5051040;28;20228;-50
2021/12/19 07:46:54;;;;;;;20.35;7.18;;;7.30;99.90;;;;;;5052797;28;20124;-50
2021/12/19 07:49:19;;;;;;;21.98;7.57;;;7.30;99.90;;;;;;5053820;28;20472;-52
2021/12/19 07:51:45;;;;;;;21.27;7.10;;;7.30;99.90;;;;;;5054309;28;20039;-52
2021/12/19 07:54:57;;;;;;;22.05;7.63;;;7.30;99.90;;;;;;5049070;28;20089;-51
2021/12/19 07:57:36;;;;;;;22.65;7.80;;;7.30;99.90;;;;;;5039700;28;20045;-49
2021/12/19 08:00:04;;;;;;;20.17;7.18;;;7.30;99.90;;;;;;5040456;28;20044;-53
2021/12/19 08:02:30;;;;;;;22.00;8.38;;;7.30;99.90;;;;;;5040433;28;20513;-52
2021/12/19 08:04:55;;;;;;;22.45;7.82;;;7.30;99.90;;;;;;5043785;28;20248;-52
2021/12/19 08:07:23;;;;;;;20.48;6.65;;;7.30;99.90;;;;;;5043795;28;20125;-52
2021/12/19 08:10:11;;;;;;;21.38;6.15;;;7.30;99.90;;;;;;5009916;28;20045;-52
2021/12/19 08:12:38;;;;;;;17.38;5.90;;;7.30;99.90;;;;;;5045462;28;20056;-49
2021/12/19 08:15:05;;;;;;;15.38;6.30;;;7.40;99.90;;;;;;5047107;28;20038;-51
2021/12/19 08:17:31;;;;;;;19.85;6.07;;;7.40;99.90;;;;;;5025799;28;20323;-50
2021/12/19 08:19:58;;;;;;;17.05;6.13;;;7.40;99.90;;;;;;5028389;28;20041;-49
2021/12/19 08:22:24;;;;;;;14.23;6.03;;;7.40;99.90;;;;;;5041664;28;20041;-50
2021/12/19 08:24:50;;;;;;;14.30;5.03;;;7.40;99.90;;;;;;5040642;28;20094;-49
2021/12/19 08:27:17;;;;;;;15.65;5.63;;;7.40;99.90;;;;;;5029133;28;20041;-49
2021/12/19 08:29:43;;;;;;;16.08;5.20;;;7.40;99.90;;;;;;5044100;28;20040;-52
2021/12/19 08:32:09;;;;;;;18.30;5.03;;;7.40;99.90;;;;;;5049159;28;20041;-51
2021/12/19 08:34:34;;;;;;;15.68;5.60;;;7.40;99.90;;;;;;5046177;28;20033;-51
2021/12/19 08:37:02;;;;;;;13.95;4.40;;;7.40;99.90;;;;;;5046179;28;20068;-50
2021/12/19 08:39:28;;;;;;;15.65;5.20;;;7.40;99.90;;;;;;5007024;28;20041;-50
2021/12/19 08:41:54;;;;;;;19.70;4.97;;;7.40;99.90;;;;;;5043686;28;20040;-50
2021/12/19 08:44:20;;;;;;;16.08;4.55;;;7.40;99.90;;;;;;5044094;28;20405;-51
2021/12/19 08:46:46;;;;;;;19.15;4.70;;;7.30;99.90;;;;;;5052805;28;20091;-50
2021/12/19 08:49:11;;;;;;;12.52;4.85;;;7.40;99.90;;;;;;5048090;28;20464;-50
2021/12/19 08:51:39;;;;;;;14.63;4.63;;;7.40;99.90;;;;;;5033471;28;20029;-53
2021/12/19 08:54:06;;;;;;;15.32;5.32;;;7.30;99.90;;;;;;5046633;28;20107;-50
2021/12/19 08:56:32;;;;;;;17.83;5.00;;;7.30;99.90;;;;;;5053379;28;20112;-51
2021/12/19 08:58:59;;;;;;;19.20;5.15;;;7.30;99.90;;;;;;5053336;28;20079;-52
2021/12/19 09:01:25;;;;;;;14.73;5.05;;;7.40;99.90;;;;;;5052852;28;20041;-49
2021/12/19 09:03:50;;;;;;;16.27;5.13;;;7.40;99.90;;;;;;5051424;28;20040;-50
2021/12/19 09:06:16;;;;;;;17.85;4.75;;;7.40;99.90;;;;;;5051458;28;20043;-50
2021/12/19 09:08:42;;;;;;;12.93;4.03;;;7.40;99.90;;;;;;5015114;28;20083;-53
2021/12/19 09:11:07;;;;;;;18.25;4.55;;;7.40;99.90;;;;;;5053990;28;20040;-54
2021/12/19 09:13:33;;;;;;;15.00;4.75;;;7.40;99.90;;;;;;5048458;28;20041;-51
2021/12/19 09:16:00;;;;;;;14.18;4.30;;;7.40;99.90;;;;;;5011449;28;20044;-53
2021/12/19 09:18:28;;;;;;;22.92;5.35;;;7.40;99.90;;;;;;5052570;28;20084;-52
2021/12/19 09:20:54;;;;;;;16.42;4.60;;;7.40;99.90;;;;;;5053008;28;20056;-49
2021/12/19 09:23:19;;;;;;;17.23;4.53;;;7.40;99.90;;;;;;5052526;28;20036;-50
2021/12/19 09:25:45;;;;;;;15.38;4.07;;;7.40;99.90;;;;;;5052713;28;20048;-52
2021/12/19 09:28:11;;;;;;;15.63;4.55;;;7.40;99.90;;;;;;5052805;28;20567;-51
2021/12/19 09:30:37;;;;;;;14.65;4.53;;;7.50;99.90;;;;;;5052526;28;20033;-52
2021/12/19 09:33:03;;;;;;;19.40;4.32;;;7.50;99.90;;;;;;5051777;28;20037;-53
2021/12/19 09:35:31;;;;;;;16.08;4.03;;;7.50;99.90;;;;;;5052571;28;20408;-50
2021/12/19 09:37:56;;;;;;;15.57;4.20;;;7.50;99.90;;;;;;5052690;28;20051;-50
2021/12/19 09:40:31;;;;;;;10.88;3.50;;;7.50;99.90;;;;;;5052181;28;20037;-51
2021/12/19 09:43:01;;;;;;;12.88;3.70;;;7.40;99.90;;;;;;5052173;28;20048;-51
2021/12/19 09:45:28;;;;;;;12.45;3.80;;;7.50;99.90;;;;;;5052351;28;20094;-52
2021/12/19 09:47:55;;;;;;;10.25;3.80;;;7.50;99.90;;;;;;5052459;28;20067;-52
2021/12/19 09:50:22;;;;;;;12.10;3.83;;;7.50;99.90;;;;;;5018402;28;20047;-52
2021/12/19 09:52:49;;;;;;;14.65;3.72;;;7.50;99.90;;;;;;5052006;28;20041;-53
2021/12/19 09:55:19;;;;;;;8.68;3.25;;;7.50;99.90;;;;;;5034212;28;20508;-50
2021/12/19 09:57:47;;;;;;;13.73;3.70;;;7.50;99.90;;;;;;5017892;28;20033;-52
2021/12/19 10:06:29;;;;;;;15.13;3.33;;;7.60;99.90;;;;;;5059515;22;20058;-51
2021/12/19 10:09:11;;;;;;;14.13;3.92;;;7.50;99.90;;;;;;5012140;28;20030;-48
2021/12/19 10:12:11;;;;;;;10.98;4.00;;;7.50;99.90;;;;;;5012449;28;20880;-51
2021/12/19 10:14:37;;;;;;;16.27;3.80;;;7.60;99.90;;;;;;5006384;28;20540;-50
2021/12/19 10:17:06;;;;;;;16.73;3.80;;;7.60;99.90;;;;;;4991442;28;20030;-48
2021/12/19 10:19:49;;;;;;;10.88;3.85;;;7.60;99.90;;;;;;4992364;28;20038;-50
2021/12/19 10:22:51;;;;;;;15.60;4.65;;;7.60;99.90;;;;;;4988806;28;20034;-51
2021/12/19 10:25:27;;;;;;;13.13;3.70;;;7.60;99.90;;;;;;4985609;28;20046;-51
2021/12/19 10:28:04;;;;;;;11.23;4.10;;;7.60;99.90;;;;;;4992456;28;20052;-48
2021/12/19 10:30:33;;;;;;;15.70;3.70;;;7.60;99.90;;;;;;4992622;28;20825;-50
2021/12/19 10:33:03;;;;;;;12.55;3.50;;;7.60;99.90;;;;;;4986199;28;20521;-51
2021/12/19 10:35:47;;;;;;;16.42;3.42;;;7.60;99.90;;;;;;4992246;28;20197;-50
2021/12/19 10:38:22;;;;;;;10.18;3.40;;;7.70;99.90;;;;;;4975075;28;20034;-48
2021/12/19 10:40:58;;;;;;;14.23;4.15;;;7.70;99.90;;;;;;4992486;28;20046;-51
2021/12/19 10:43:30;;;;;;;14.77;3.13;;;7.70;99.90;;;;;;4991750;28;20426;-50
2021/12/19 10:46:04;;;;;;;12.07;3.83;;;7.70;99.90;;;;;;4992408;28;20038;-50
2021/12/19 10:48:36;;;;;;;16.02;3.28;;;7.70;99.90;;;;;;4974879;28;20502;-50
2021/12/19 10:51:06;;;;;;;;;;;7.70;99.90;;;;;;4992620;28;20121;-49
2021/12/19 10:53:43;;;;;;;9.93;3.00;;;7.70;99.90;;;;;;4992034;28;20302;-48
2021/12/19 10:56:31;;;;;;;11.60;3.55;;;7.70;99.90;;;;;;4974558;28;20294;-49
2021/12/19 10:59:03;;;;;;;15.70;3.97;;;7.70;99.90;;;;;;4991952;28;20074;-51
2021/12/19 11:01:36;;;;;;;16.23;3.60;;;7.80;99.90;;;;;;4991928;28;20125;-51
2021/12/19 11:04:19;;;;;;;11.20;3.55;;;7.80;99.90;;;;;;4992224;28;20046;-50
2021/12/19 11:06:49;;;;;;;17.48;3.47;;;7.80;99.90;;;;;;4986061;28;20454;-50
2021/12/19 11:09:18;;;;;;;9.30;3.08;;;7.80;99.90;;;;;;4992394;28;20058;-48
2021/12/19 11:11:53;;;;;;;13.35;3.00;;;7.80;99.90;;;;;;4992074;28;20041;-50
2021/12/19 11:14:25;;;;;;;14.73;3.17;;;7.80;99.90;;;;;;4991801;28;20534;-50
2021/12/19 11:16:54;;;;;;;14.07;3.53;;;7.80;99.90;;;;;;4991953;28;20429;-48
2021/12/19 11:19:21;;;;;;;13.30;3.78;;;7.80;99.90;;;;;;4974449;28;20042;-48
2021/12/19 11:21:47;;;;;;;14.35;4.00;;;7.80;99.90;;;;;;4977691;28;20042;-48
2021/12/19 11:27:54;;;;;;;12.45;3.40;;;7.80;99.90;;;;;;4987593;28;20037;-51
2021/12/19 11:30:20;;;;;;;14.43;3.33;;;7.80;99.90;;;;;;4981408;28;20442;-49
2021/12/19 11:33:07;;;;;;;9.82;3.42;;;7.80;99.90;;;;;;4981931;28;20030;-50
2021/12/19 11:35:36;;;;;;;13.07;3.83;;;7.80;99.90;;;;;;4984360;28;20491;-49
2021/12/19 11:38:09;;;;;;;15.23;3.88;;;7.90;99.90;;;;;;4979309;28;20027;-51
2021/12/19 11:40:37;;;;;;;11.63;3.35;;;7.80;99.90;;;;;;4979546;28;20514;-48
2021/12/19 11:43:06;;;;;;;24.35;4.72;;;7.80;99.90;;;;;;4986677;28;20043;-48
2021/12/19 11:45:41;;;;;;;15.13;3.85;;;7.90;99.90;;;;;;4964495;28;20061;-51
2021/12/19 11:48:21;;;;;;;13.48;3.47;;;7.90;99.90;;;;;;4981149;28;20561;-48
2021/12/19 11:50:53;;;;;;;16.13;3.97;;;7.90;99.90;;;;;;4980414;28;20061;-50
2021/12/19 11:53:24;;;;;;;15.52;3.63;;;7.90;99.90;;;;;;4975568;28;20038;-50
2021/12/19 11:55:52;;;;;;;10.05;3.65;;;8.00;99.90;;;;;;4950437;28;20039;-50
2021/12/19 11:58:22;;;;;;;16.23;3.55;;;8.00;99.90;;;;;;4966627;28;20052;-50
2021/12/19 12:00:54;;;;;;;13.68;3.53;;;8.00;99.90;;;;;;4979530;28;20072;-51
2021/12/19 12:03:25;;;;;;;14.45;3.65;;;8.00;99.90;;;;;;4991101;28;20044;-49
2021/12/19 12:05:57;;;;;;;15.05;3.70;;;8.00;99.90;;;;;;4970300;28;20606;-50
2021/12/19 12:08:25;;;;;;;9.77;3.20;;;8.00;99.90;;;;;;4985690;28;20042;-48
2021/12/19 12:10:59;;;;;;;13.77;3.50;;;8.00;99.90;;;;;;4981756;28;20041;-49
2021/12/19 12:13:31;;;;;;;11.98;3.10;;;7.90;99.90;;;;;;4988280;28;21055;-53
2021/12/19 12:18:43;;;;;;;14.63;2.72;;;8.00;99.90;;;;;;4965399;28;20050;-51
2021/12/19 12:21:57;;;;;;;17.65;4.45;;;8.00;99.90;;;;;;4985607;28;20039;-52
2021/12/19 12:24:18;;;;;;;13.35;3.38;;;8.00;99.90;;;;;;4977984;28;20575;-51
2021/12/19 12:26:57;;;;;;;13.63;3.17;;;8.00;99.90;;;;;;4981223;28;20041;-51
2021/12/19 12:29:24;;;;;;;13.98;3.05;;;8.00;99.90;;;;;;4966743;28;20035;-48
2021/12/19 12:31:51;;;;;;;12.85;2.72;;;8.00;99.90;;;;;;4962722;28;20129;-52
2021/12/19 12:34:18;;;;;;;17.38;2.90;;;8.00;99.90;;;;;;4985198;28;20418;-51
2021/12/19 12:36:44;;;;;;;13.82;3.80;;;8.10;99.90;;;;;;4982137;28;20113;-53
2021/12/19 12:39:23;;;;;;;12.32;3.40;;;8.00;99.90;;;;;;4984301;28;20060;-53
2021/12/19 12:41:58;;;;;;;14.80;2.92;;;8.00;99.90;;;;;;4977040;28;20118;-49
2021/12/19 12:44:23;;;;;;;17.85;4.35;;;8.10;99.90;;;;;;4990282;28;20395;-51
2021/12/19 12:46:50;;;;;;;14.48;3.22;;;8.10;99.90;;;;;;4992558;28;20041;-51
2021/12/19 12:49:26;;;;;;;11.10;3.40;;;8.10;99.90;;;;;;4991436;28;20154;-50
2021/12/19 12:51:58;;;;;;;12.55;2.65;;;8.10;99.90;;;;;;4989281;28;20030;-51
2021/12/19 12:54:34;;;;;;;17.75;3.85;;;8.10;99.90;;;;;;4986910;28;20042;-50
2021/12/19 12:57:07;;;;;;;14.18;2.80;;;8.30;99.90;;;;;;4984570;28;20209;-53
2021/12/19 12:59:38;;;;;;;12.43;2.70;;;8.40;99.90;;;;;;4995117;28;20030;-51
2021/12/19 13:02:17;;;;;;;14.80;3.30;;;8.40;99.90;;;;;;4989632;28;20066;-51
2021/12/19 13:04:45;;;;;;;13.45;2.90;;;8.30;99.90;;;;;;4990518;28;20061;-51
2021/12/19 13:07:12;;;;;;;15.90;3.08;;;8.30;99.90;;;;;;4990128;28;20038;-51
2021/12/19 13:09:46;;;;;;;12.70;3.08;;;8.20;99.90;;;;;;4990523;28;20050;-51
2021/12/19 13:12:16;;;;;;;14.68;2.90;;;8.20;99.90;;;;;;4989388;28;20470;-51
2021/12/19 13:14:51;;;;;;;10.85;2.55;;;8.20;99.90;;;;;;4990184;28;20050;-51
2021/12/19 13:17:26;;;;;;;12.30;2.85;;;8.10;99.90;;;;;;4969545;28;20369;-53
2021/12/19 13:20:10;;;;;;;15.13;3.50;;;8.10;99.90;;;;;;4991475;28;20038;-53
2021/12/19 13:22:38;;;;;;;13.73;2.95;;;8.40;99.90;;;;;;4985157;28;20334;-51
2021/12/19 13:25:12;;;;;;;16.27;2.65;;;8.10;99.90;;;;;;4982039;28;20426;-53
2021/12/19 13:27:43;;;;;;;16.70;2.97;;;8.10;99.90;;;;;;4987484;28;20046;-52
2021/12/19 13:30:10;;;;;;;14.00;2.80;;;8.10;99.90;;;;;;4982750;28;20038;-52
2021/12/19 13:32:43;;;;;;;16.35;3.30;;;8.10;99.90;;;;;;4987742;28;20058;-52
2021/12/19 13:35:14;;;;;;;;;;;8.10;99.90;;;;;;4979586;28;20549;-51
2021/12/19 13:38:18;;;;;;;13.30;2.70;;;8.10;99.90;;;;;;4954364;28;19964;-50
2021/12/19 13:40:47;;;;;;;15.90;3.10;;;8.10;99.90;;;;;;4982163;28;20503;-53
2021/12/19 13:43:17;;;;;;;12.75;3.20;;;8.00;99.90;;;;;;4984474;28;20061;-53
2021/12/19 13:46:04;;;;;;;18.80;2.83;;;8.00;99.90;;;;;;4983232;28;20042;-49
2021/12/19 13:48:37;;;;;;;16.00;3.22;;;8.00;99.90;;;;;;4978609;28;20048;-53
2021/12/19 13:51:12;;;;;;;;;;;8.00;99.90;;;;;;4982550;28;20038;-53
2021/12/19 13:53:49;;;;;;;11.80;2.55;;;8.10;99.90;;;;;;4985197;28;19917;-49
2021/12/19 13:56:24;;;;;;;16.02;3.88;;;8.10;99.90;;;;;;4982032;28;20121;-49
2021/12/19 13:59:02;;;;;;;15.70;3.35;;;8.00;99.90;;;;;;4987334;28;20500;-48
2021/12/19 14:01:39;;;;;;;14.40;3.40;;;8.10;99.90;;;;;;4979410;28;20038;-49
2021/12/19 14:04:17;;;;;;;17.00;3.72;;;8.10;99.90;;;;;;4988406;28;20469;-49
2021/12/19 14:14:12;;;;;;;17.83;3.03;;;8.00;99.90;;;;;;5035873;23;20075;-52
2021/12/19 14:16:37;;;;;;;12.73;2.90;;;8.10;99.90;;;;;;5028263;28;20044;-52
2021/12/19 14:19:20;;;;;;;22.42;3.35;;;8.00;99.90;;;;;;5029352;28;20049;-49